createdAt,value
2022-11-26T00:00:50.771Z,7.60
2022-11-26T00:03:18.734Z,7.60
2022-11-26T00:05:48.424Z,7.60
2022-11-26T00:08:28.895Z,7.60
2022-11-26T00:10:56.070Z,7.60
2022-11-26T00:13:25.997Z,7.60
2022-11-26T00:15:53.274Z,7.50
2022-11-26T00:18:23.334Z,7.50
2022-11-26T00:20:54.551Z,7.50
2022-11-26T00:23:26.441Z,7.60
2022-11-26T00:25:56.690Z,7.60
2022-11-26T00:28:28.723Z,7.60
2022-11-26T00:30:57.907Z,7.60
2022-11-26T00:33:24.883Z,7.60
2022-11-26T00:35:55.697Z,7.60
2022-11-26T00:38:23.106Z,7.60
2022-11-26T00:40:49.996Z,7.60
2022-11-26T00:43:18.050Z,7.60
2022-11-26T00:45:45.283Z,7.50
2022-11-26T00:48:12.157Z,7.50
2022-11-26T00:50:42.862Z,7.50
2022-11-26T00:53:13.757Z,7.50
2022-11-26T00:55:44.435Z,7.40
2022-11-26T00:58:30.232Z,7.50
2022-11-26T01:00:59.310Z,7.50
2022-11-26T01:03:26.401Z,7.50
2022-11-26T01:05:55.240Z,7.40
2022-11-26T01:08:28.672Z,7.50
2022-11-26T01:10:55.503Z,7.40
2022-11-26T01:13:22.408Z,7.40
2022-11-26T01:15:49.364Z,7.40
2022-11-26T01:18:19.956Z,7.40
2022-11-26T01:20:47.420Z,7.30
2022-11-26T01:23:16.502Z,7.40
2022-11-26T01:25:43.514Z,7.30
2022-11-26T01:28:12.948Z,7.30
2022-11-26T01:30:40.347Z,7.30
2022-11-26T01:33:07.680Z,7.30
2022-11-26T01:35:35.567Z,7.30
2022-11-26T01:38:02.979Z,7.30
2022-11-26T01:40:45.433Z,7.30
2022-11-26T01:43:23.283Z,7.30
2022-11-26T01:45:50.214Z,7.20
2022-11-26T01:48:25.632Z,7.20
2022-11-26T01:50:54.794Z,7.20
2022-11-26T01:53:26.323Z,7.20
2022-11-26T01:55:57.322Z,7.20
2022-11-26T01:58:38.302Z,7.10
2022-11-26T02:01:07.281Z,7.00
2022-11-26T02:03:45.057Z,7.00
2022-11-26T02:06:17.714Z,6.90
2022-11-26T02:08:44.927Z,6.90
2022-11-26T02:11:21.289Z,6.80
2022-11-26T02:13:51.612Z,6.80
2022-11-26T02:16:25.699Z,6.80
2022-11-26T02:19:20.685Z,6.80
2022-11-26T02:22:02.673Z,6.80
2022-11-26T02:24:44.820Z,6.80
2022-11-26T02:27:34.799Z,6.80
2022-11-26T02:30:06.114Z,6.80
2022-11-26T02:32:42.065Z,6.80
2022-11-26T02:35:36.490Z,6.70
2022-11-26T02:38:19.322Z,6.70
2022-11-26T02:40:46.251Z,6.70
2022-11-26T02:43:15.901Z,6.60
2022-11-26T02:45:56.005Z,6.60
2022-11-26T02:48:27.663Z,6.60
2022-11-26T02:50:58.478Z,6.50
2022-11-26T02:53:28.534Z,6.40
2022-11-26T02:56:05.399Z,6.30
2022-11-26T02:58:33.895Z,6.20
2022-11-26T03:01:04.815Z,6.20
2022-11-26T03:03:43.214Z,6.00
2022-11-26T03:06:12.966Z,5.90
2022-11-26T03:08:39.804Z,5.90
2022-11-26T03:11:06.927Z,5.90
2022-11-26T03:13:33.811Z,5.90
2022-11-26T03:16:00.741Z,5.80
2022-11-26T03:18:27.764Z,5.80
2022-11-26T03:20:54.575Z,5.70
2022-11-26T03:23:21.687Z,5.70
2022-11-26T03:25:48.493Z,5.60
2022-11-26T03:28:16.329Z,5.50
2022-11-26T03:30:43.166Z,5.50
2022-11-26T03:33:09.933Z,5.50
2022-11-26T03:35:36.731Z,5.40
2022-11-26T03:38:03.593Z,5.40
2022-11-26T03:40:30.498Z,5.40
2022-11-26T03:42:57.264Z,5.30
2022-11-26T03:45:24.067Z,5.30
2022-11-26T03:47:50.968Z,5.30
2022-11-26T03:50:17.962Z,5.30
2022-11-26T03:52:44.795Z,5.20
2022-11-26T03:55:11.673Z,5.20
2022-11-26T03:57:38.899Z,5.20
2022-11-26T04:00:08.759Z,5.20
2022-11-26T04:02:36.397Z,5.20
2022-11-26T04:05:04.249Z,5.30
2022-11-26T04:07:31.037Z,5.50
2022-11-26T04:09:57.884Z,5.60
2022-11-26T04:12:24.720Z,5.70
2022-11-26T04:14:51.901Z,5.80
2022-11-26T04:17:18.810Z,5.80
2022-11-26T04:19:45.592Z,5.80
2022-11-26T04:22:12.498Z,5.90
2022-11-26T04:24:39.546Z,5.90
2022-11-26T04:27:06.553Z,5.90
2022-11-26T04:29:33.368Z,5.90
2022-11-26T04:32:00.186Z,5.90
2022-11-26T04:34:27.088Z,5.90
2022-11-26T04:36:53.980Z,5.90
2022-11-26T04:39:20.866Z,6.00
2022-11-26T04:41:47.771Z,6.00
2022-11-26T04:44:14.594Z,6.00
2022-11-26T04:46:41.420Z,5.90
2022-11-26T04:49:08.341Z,5.90
2022-11-26T04:51:35.159Z,5.80
2022-11-26T04:54:03.413Z,5.90
2022-11-26T04:56:31.776Z,5.80
2022-11-26T04:58:58.657Z,5.90
2022-11-26T05:01:26.989Z,5.90
2022-11-26T05:03:53.892Z,5.90
2022-11-26T05:06:20.848Z,6.00
2022-11-26T05:08:47.673Z,6.10
2022-11-26T05:11:14.658Z,6.10
2022-11-26T05:13:41.445Z,6.20
2022-11-26T05:16:08.417Z,6.20
2022-11-26T05:18:35.432Z,6.30
2022-11-26T05:21:05.193Z,6.40
2022-11-26T05:23:32.121Z,6.40
2022-11-26T05:25:58.930Z,6.40
2022-11-26T05:28:25.755Z,6.50
2022-11-26T05:31:00.188Z,6.50
2022-11-26T05:33:27.552Z,6.50
2022-11-26T05:35:54.336Z,6.50
2022-11-26T05:38:21.449Z,6.60
2022-11-26T05:40:48.218Z,6.60
2022-11-26T05:43:15.687Z,6.60
2022-11-26T05:45:42.740Z,6.70
2022-11-26T05:48:09.724Z,6.60
2022-11-26T05:50:36.578Z,6.70
2022-11-26T05:53:03.559Z,6.70
2022-11-26T05:55:30.979Z,6.70
2022-11-26T05:57:57.830Z,6.70
2022-11-26T06:00:24.790Z,6.70
2022-11-26T06:02:51.698Z,6.70
2022-11-26T06:05:19.221Z,6.70
2022-11-26T06:07:46.343Z,6.70
2022-11-26T06:10:14.342Z,6.70
2022-11-26T06:12:41.167Z,6.70
2022-11-26T06:15:08.475Z,6.70
2022-11-26T06:17:35.351Z,6.60
2022-11-26T06:20:03.809Z,6.70
2022-11-26T06:22:31.500Z,6.60
2022-11-26T06:24:59.195Z,6.60
2022-11-26T06:27:30.915Z,6.60
2022-11-26T06:29:58.452Z,6.60
2022-11-26T06:32:25.828Z,6.60
2022-11-26T06:34:54.191Z,6.60
2022-11-26T06:37:21.359Z,6.60
2022-11-26T06:39:48.144Z,6.60
2022-11-26T06:42:14.854Z,6.60
2022-11-26T06:44:41.710Z,6.50
2022-11-26T06:47:12.575Z,6.50
2022-11-26T06:49:39.586Z,6.40
2022-11-26T06:52:06.521Z,6.40
2022-11-26T06:54:33.486Z,6.30
2022-11-26T06:57:00.187Z,6.30
2022-11-26T06:59:26.949Z,6.30
2022-11-26T07:01:53.792Z,6.30
2022-11-26T07:04:20.709Z,6.30
2022-11-26T07:06:47.445Z,6.30
2022-11-26T07:09:14.334Z,6.30
2022-11-26T07:11:41.941Z,6.20
2022-11-26T07:14:09.133Z,6.20
2022-11-26T07:16:36.428Z,6.30
2022-11-26T07:19:03.465Z,6.20
2022-11-26T07:21:30.710Z,6.20
2022-11-26T07:23:58.544Z,6.20
2022-11-26T07:26:25.297Z,6.20
2022-11-26T07:28:53.147Z,6.30
2022-11-26T07:31:21.381Z,6.40
2022-11-26T07:33:48.971Z,6.40
2022-11-26T07:36:28.125Z,6.40
2022-11-26T07:38:59.088Z,6.40
2022-11-26T07:41:27.227Z,6.50
2022-11-26T07:43:54.629Z,6.50
2022-11-26T07:46:24.014Z,6.60
2022-11-26T07:48:51.183Z,6.60
2022-11-26T07:51:27.087Z,6.60
2022-11-26T07:53:54.784Z,6.70
2022-11-26T07:56:21.616Z,6.70
2022-11-26T07:58:49.170Z,6.70
2022-11-26T08:01:22.012Z,6.80
2022-11-26T08:03:50.440Z,6.80
2022-11-26T08:06:20.254Z,6.90
2022-11-26T08:08:47.595Z,6.90
2022-11-26T08:11:20.295Z,7.00
2022-11-26T08:13:48.424Z,7.00
2022-11-26T08:16:15.904Z,7.10
2022-11-26T08:18:43.012Z,7.10
2022-11-26T08:21:10.432Z,7.10
2022-11-26T08:23:37.449Z,7.10
2022-11-26T08:28:59.134Z,7.10
2022-11-26T08:31:27.801Z,7.20
2022-11-26T08:33:59.401Z,7.20
2022-11-26T08:36:27.883Z,7.30
2022-11-26T08:38:55.016Z,7.30
2022-11-26T08:41:21.937Z,7.30
2022-11-26T08:44:05.581Z,7.30
2022-11-26T08:46:33.295Z,7.40
2022-11-26T08:49:00.019Z,7.40
2022-11-26T08:51:26.808Z,7.40
2022-11-26T08:53:53.532Z,7.50
2022-11-26T08:56:20.567Z,7.50
2022-11-26T08:58:48.882Z,7.60
2022-11-26T09:01:24.656Z,7.60
2022-11-26T09:03:53.609Z,7.60
2022-11-26T09:06:21.903Z,7.70
2022-11-26T09:09:07.737Z,7.90
2022-11-26T09:11:38.413Z,8.20
2022-11-26T09:14:05.618Z,8.60
2022-11-26T09:16:33.612Z,9.00
2022-11-26T09:19:01.511Z,9.20
2022-11-26T09:21:28.693Z,9.30
2022-11-26T09:23:55.819Z,9.50
2022-11-26T09:26:23.077Z,9.40
2022-11-26T09:28:50.374Z,9.40
2022-11-26T09:31:17.991Z,9.50
2022-11-26T09:33:45.279Z,9.70
2022-11-26T09:36:14.350Z,10.00
2022-11-26T09:38:41.586Z,10.30
2022-11-26T09:41:35.371Z,10.50
2022-11-26T09:44:04.784Z,10.70
2022-11-26T09:47:15.068Z,10.80
2022-11-26T09:49:53.274Z,10.80
2022-11-26T09:52:22.174Z,10.60
2022-11-26T09:54:53.613Z,10.50
2022-11-26T09:57:28.827Z,10.40
2022-11-26T09:59:56.452Z,10.20
2022-11-26T10:02:25.137Z,10.10
2022-11-26T10:04:52.120Z,10.10
2022-11-26T10:07:30.185Z,10.20
2022-11-26T10:10:15.118Z,10.40
2022-11-26T10:13:22.340Z,10.50
2022-11-26T10:16:10.897Z,10.60
2022-11-26T10:18:47.786Z,10.60
2022-11-26T10:21:57.640Z,10.60
2022-11-26T10:24:36.094Z,10.50
2022-11-26T10:27:13.963Z,10.50
2022-11-26T10:29:48.350Z,10.30
2022-11-26T10:32:21.847Z,10.20
2022-11-26T10:34:52.035Z,10.00
2022-11-26T10:37:24.508Z,9.80
2022-11-26T10:40:09.822Z,9.80
2022-11-26T10:42:46.772Z,9.70
2022-11-26T10:45:23.205Z,9.70
2022-11-26T10:47:50.013Z,9.60
2022-11-26T10:50:46.579Z,9.60
2022-11-26T10:53:22.295Z,9.60
2022-11-26T10:55:51.498Z,9.70
2022-11-26T10:58:28.435Z,9.70
2022-11-26T11:00:59.406Z,9.70
2022-11-26T11:04:06.770Z,9.70
2022-11-26T11:06:28.771Z,9.60
2022-11-26T11:08:55.851Z,9.70
2022-11-26T11:11:28.545Z,9.60
2022-11-26T11:13:55.795Z,9.60
2022-11-26T11:16:37.316Z,9.60
2022-11-26T11:19:20.091Z,9.70
2022-11-26T11:21:48.565Z,9.70
2022-11-26T11:24:18.359Z,9.70
2022-11-26T11:26:47.641Z,9.70
2022-11-26T11:29:33.159Z,9.80
2022-11-26T11:32:02.235Z,9.90
2022-11-26T11:34:38.215Z,10.00
2022-11-26T11:37:15.342Z,10.00
2022-11-26T11:39:42.798Z,10.10
2022-11-26T11:42:35.606Z,10.10
2022-11-26T11:45:04.602Z,10.20
2022-11-26T11:47:44.116Z,10.30
2022-11-26T11:50:34.203Z,10.30
2022-11-26T11:53:19.491Z,10.30
2022-11-26T11:56:11.411Z,10.40
2022-11-26T11:59:02.808Z,10.40
2022-11-26T12:01:44.510Z,10.40
2022-11-26T12:04:39.448Z,10.40
2022-11-26T12:07:23.540Z,10.50
2022-11-26T12:09:58.287Z,10.50
2022-11-26T12:12:30.598Z,10.50
2022-11-26T12:15:10.310Z,10.50
2022-11-26T12:17:43.096Z,10.50
2022-11-26T12:20:27.933Z,10.50
2022-11-26T12:23:00.350Z,10.50
2022-11-26T12:25:35.364Z,10.50
2022-11-26T12:28:13.880Z,10.50
2022-11-26T12:31:03.321Z,10.50
2022-11-26T12:33:43.650Z,10.50
2022-11-26T12:36:18.334Z,10.50
2022-11-26T12:43:16.328Z,10.60
2022-11-26T12:46:07.819Z,10.70
2022-11-26T12:48:49.738Z,10.70
2022-11-26T12:51:28.397Z,10.70
2022-11-26T12:58:19.246Z,10.70
2022-11-26T13:00:47.124Z,10.70
2022-11-26T13:03:17.133Z,10.70
2022-11-26T13:05:55.982Z,10.70
2022-11-26T13:08:28.596Z,10.70
2022-11-26T13:11:23.176Z,10.70
2022-11-26T13:14:17.205Z,10.70
2022-11-26T13:17:14.833Z,10.60
2022-11-26T13:20:08.393Z,10.60
2022-11-26T13:22:54.015Z,10.70
2022-11-26T13:25:38.972Z,10.60
2022-11-26T13:28:34.164Z,10.60
2022-11-26T13:31:15.962Z,10.70
2022-11-26T13:34:07.565Z,10.80
2022-11-26T13:36:40.282Z,10.90
2022-11-26T13:39:10.070Z,11.10
2022-11-26T13:42:05.887Z,11.20
2022-11-26T13:44:56.864Z,11.20
2022-11-26T13:47:47.216Z,11.20
2022-11-26T13:50:19.739Z,11.20
2022-11-26T13:52:59.462Z,11.30
2022-11-26T13:55:31.634Z,11.30
2022-11-26T13:58:02.649Z,11.30
2022-11-26T14:00:34.378Z,11.30
2022-11-26T14:03:03.011Z,11.30
2022-11-26T14:05:51.784Z,11.30
2022-11-26T14:08:38.372Z,11.40
2022-11-26T14:11:05.825Z,11.30
2022-11-26T14:13:32.658Z,11.30
2022-11-26T14:16:13.439Z,11.20
2022-11-26T14:18:56.573Z,11.10
2022-11-26T14:21:23.947Z,11.10
2022-11-26T14:23:52.596Z,11.00
2022-11-26T14:26:39.959Z,11.00
2022-11-26T14:29:06.616Z,10.90
2022-11-26T14:31:34.976Z,10.80
2022-11-26T14:34:10.677Z,10.80
2022-11-26T14:36:51.510Z,10.70
2022-11-26T14:39:18.300Z,10.70
2022-11-26T14:41:48.178Z,10.60
2022-11-26T14:44:16.623Z,10.60
2022-11-26T14:46:46.295Z,10.60
2022-11-26T14:49:22.359Z,10.50
2022-11-26T14:51:53.337Z,10.50
2022-11-26T14:54:30.407Z,10.50
2022-11-26T14:57:01.870Z,10.50
2022-11-26T14:59:30.419Z,10.50
2022-11-26T15:01:57.349Z,10.50
2022-11-26T15:04:28.832Z,10.60
2022-11-26T15:06:56.191Z,10.70
2022-11-26T15:09:26.050Z,10.60
2022-11-26T15:11:58.517Z,10.60
2022-11-26T15:14:39.271Z,10.50
2022-11-26T15:17:07.150Z,10.50
2022-11-26T15:19:37.902Z,10.40
2022-11-26T15:22:19.455Z,10.40
2022-11-26T15:24:51.286Z,10.30
2022-11-26T15:27:34.731Z,10.20
2022-11-26T15:30:01.945Z,10.20
2022-11-26T15:32:31.853Z,10.10
2022-11-26T15:35:01.813Z,10.10
2022-11-26T15:37:28.737Z,10.00
2022-11-26T15:40:09.257Z,10.00
2022-11-26T15:42:36.309Z,10.00
2022-11-26T15:45:03.249Z,9.90
2022-11-26T15:47:30.193Z,9.90
2022-11-26T15:50:00.020Z,9.80
2022-11-26T15:52:32.650Z,9.80
2022-11-26T15:55:18.360Z,9.80
2022-11-26T15:57:51.161Z,9.80
2022-11-26T16:00:30.647Z,9.70
2022-11-26T16:02:57.437Z,9.70
2022-11-26T16:05:28.662Z,9.70
2022-11-26T16:07:57.775Z,9.70
2022-11-26T16:10:31.376Z,9.60
2022-11-26T16:13:16.257Z,9.60
2022-11-26T16:15:56.494Z,9.60
2022-11-26T16:18:28.601Z,9.60
2022-11-26T16:21:04.410Z,9.50
2022-11-26T16:23:31.187Z,9.40
2022-11-26T16:26:09.036Z,9.50
2022-11-26T16:28:35.902Z,9.40
2022-11-26T16:31:02.810Z,9.40
2022-11-26T16:33:29.987Z,9.30
2022-11-26T16:35:56.870Z,9.30
2022-11-26T16:38:26.018Z,9.20
2022-11-26T16:40:54.006Z,9.20
2022-11-26T16:43:23.159Z,9.20
2022-11-26T16:45:54.313Z,9.10
2022-11-26T16:48:23.193Z,9.10
2022-11-26T16:50:50.452Z,9.10
2022-11-26T16:53:17.304Z,9.10
2022-11-26T16:55:44.162Z,9.00
2022-11-26T16:58:27.900Z,9.00
2022-11-26T17:00:56.336Z,9.00
2022-11-26T17:03:24.863Z,8.90
2022-11-26T17:05:54.902Z,8.90
2022-11-26T17:08:22.522Z,8.80
2022-11-26T17:10:50.839Z,8.80
2022-11-26T17:13:18.567Z,8.80
2022-11-26T17:15:45.523Z,8.80
2022-11-26T17:18:22.130Z,8.70
2022-11-26T17:20:50.047Z,8.70
2022-11-26T17:23:17.259Z,8.70
2022-11-26T17:25:51.791Z,8.60
2022-11-26T17:28:20.898Z,8.60
2022-11-26T17:30:47.735Z,8.50
2022-11-26T17:33:14.564Z,8.50
2022-11-26T17:35:41.388Z,8.50
2022-11-26T17:38:18.407Z,8.50
2022-11-26T17:40:46.270Z,8.40
2022-11-26T17:43:13.748Z,8.40
2022-11-26T17:45:41.486Z,8.40
2022-11-26T17:48:12.275Z,8.40
2022-11-26T17:50:40.822Z,8.40
2022-11-26T17:53:07.580Z,8.30
2022-11-26T17:55:34.433Z,8.30
2022-11-26T17:58:01.201Z,8.30
2022-11-26T18:00:29.640Z,8.20
2022-11-26T18:02:57.272Z,8.20
2022-11-26T18:07:04.853Z,8.20
2022-11-26T18:17:00.515Z,8.20
2022-11-26T18:19:28.222Z,8.10
2022-11-26T18:21:55.358Z,8.10
2022-11-26T18:24:22.483Z,8.10
2022-11-26T18:26:49.509Z,8.10
2022-11-26T18:29:16.570Z,8.00
2022-11-26T18:31:43.479Z,8.00
2022-11-26T18:34:10.337Z,8.00
2022-11-26T18:36:37.287Z,8.00
2022-11-26T18:39:05.186Z,8.00
2022-11-26T18:41:32.529Z,7.90
2022-11-26T18:44:01.413Z,8.00
2022-11-26T18:46:28.189Z,7.90
2022-11-26T18:48:57.107Z,7.90
2022-11-26T18:51:24.457Z,7.90
2022-11-26T18:53:51.214Z,7.90
2022-11-26T18:56:22.684Z,7.80
2022-11-26T18:58:50.664Z,7.90
2022-11-26T19:01:21.583Z,7.80
2022-11-26T19:03:49.186Z,7.80
2022-11-26T19:06:18.699Z,7.80
2022-11-26T19:08:46.752Z,7.80
2022-11-26T19:11:19.115Z,7.80
2022-11-26T19:13:46.765Z,7.80
2022-11-26T19:20:49.960Z,7.70
2022-11-26T19:23:17.533Z,7.70
2022-11-26T19:25:45.572Z,7.70
2022-11-26T19:28:12.730Z,7.70
2022-11-26T19:30:39.550Z,7.60
2022-11-26T19:33:06.731Z,7.60
2022-11-26T19:35:33.746Z,7.60
2022-11-26T19:38:00.748Z,7.60
2022-11-26T19:40:27.685Z,7.60
2022-11-26T19:42:54.523Z,7.50
2022-11-26T19:45:22.805Z,7.60
2022-11-26T19:47:50.964Z,7.50
2022-11-26T19:50:17.691Z,7.50
2022-11-26T19:52:47.931Z,7.50
2022-11-26T19:55:15.163Z,7.50
2022-11-26T19:57:41.903Z,7.50
2022-11-26T20:00:09.621Z,7.50
2022-11-26T20:02:36.611Z,7.50
2022-11-26T20:05:04.427Z,7.50
2022-11-26T20:07:31.234Z,7.40
2022-11-26T20:09:58.077Z,7.40
2022-11-26T20:12:24.853Z,7.40
2022-11-26T20:14:51.663Z,7.30
2022-11-26T20:17:18.553Z,7.30
2022-11-26T20:19:45.862Z,7.30
2022-11-26T20:22:12.618Z,7.30
2022-11-26T20:24:39.372Z,7.30
2022-11-26T20:27:06.181Z,7.30
2022-11-26T20:29:33.095Z,7.30
2022-11-26T20:31:59.855Z,7.30
2022-11-26T20:34:27.718Z,7.30
2022-11-26T20:36:54.531Z,7.30
2022-11-26T20:39:23.304Z,7.30
2022-11-26T20:41:50.809Z,7.30
2022-11-26T20:44:17.860Z,7.20
2022-11-26T20:46:44.625Z,7.30
2022-11-26T20:49:11.830Z,7.20
2022-11-26T20:51:39.205Z,7.30
2022-11-26T20:54:06.047Z,7.30
2022-11-26T20:56:34.402Z,7.30
2022-11-26T20:59:01.505Z,7.30
2022-11-26T21:01:29.493Z,7.40
2022-11-26T21:03:57.013Z,7.40
2022-11-26T21:06:29.668Z,7.40
2022-11-26T21:09:00.269Z,7.40
2022-11-26T21:11:27.358Z,7.40
2022-11-26T21:13:54.237Z,7.40
2022-11-26T21:16:21.269Z,7.40
2022-11-26T21:18:48.030Z,7.40
2022-11-26T21:21:16.399Z,7.40
2022-11-26T21:23:44.582Z,7.40
2022-11-26T21:26:15.594Z,7.40
2022-11-26T21:28:42.388Z,7.40
2022-11-26T21:31:17.264Z,7.40
2022-11-26T21:33:53.804Z,7.40
2022-11-26T21:36:20.511Z,7.40
2022-11-26T21:38:48.693Z,7.40
2022-11-26T21:41:19.845Z,7.40
2022-11-26T21:43:47.806Z,7.40
2022-11-26T21:46:17.703Z,7.40
2022-11-26T21:48:44.964Z,7.40
2022-11-26T21:51:15.067Z,7.40
2022-11-26T21:53:42.308Z,7.40
2022-11-26T21:56:20.867Z,7.40
2022-11-26T21:58:48.562Z,7.40
2022-11-26T22:01:18.404Z,7.40
2022-11-26T22:03:48.275Z,7.40
2022-11-26T22:06:16.298Z,7.40
2022-11-26T22:08:43.799Z,7.40
2022-11-26T22:11:12.396Z,7.40
2022-11-26T22:13:40.590Z,7.40
2022-11-26T22:16:09.252Z,7.40
2022-11-26T22:18:40.211Z,7.30
2022-11-26T22:21:09.593Z,7.30
2022-11-26T22:23:36.410Z,7.30
2022-11-26T22:26:04.050Z,7.20
2022-11-26T22:28:31.101Z,7.20
2022-11-26T22:30:58.006Z,7.20
2022-11-26T22:33:24.897Z,7.20
2022-11-26T22:35:51.624Z,7.20
2022-11-26T22:38:18.343Z,7.20
2022-11-26T22:40:45.174Z,7.10
2022-11-26T22:43:11.989Z,7.10
2022-11-26T22:45:38.886Z,7.10
2022-11-26T22:48:06.120Z,7.10
2022-11-26T22:50:32.895Z,7.10
2022-11-26T22:52:59.743Z,7.00
2022-11-26T22:55:26.837Z,7.00
2022-11-26T22:57:53.585Z,7.00
2022-11-26T23:00:47.065Z,7.00
2022-11-26T23:03:14.547Z,7.00
2022-11-26T23:05:41.836Z,7.00
2022-11-26T23:08:08.840Z,7.00
2022-11-26T23:10:36.690Z,7.00
2022-11-26T23:13:04.785Z,6.90
2022-11-26T23:15:31.636Z,6.90
2022-11-26T23:17:58.561Z,6.90
2022-11-26T23:20:25.803Z,6.90
2022-11-26T23:22:53.129Z,6.90
2022-11-26T23:25:19.942Z,6.90
2022-11-26T23:27:46.682Z,6.90
2022-11-26T23:30:13.675Z,6.90
2022-11-26T23:32:40.384Z,6.90
2022-11-26T23:35:07.637Z,6.80
2022-11-26T23:37:35.305Z,6.80
2022-11-26T23:40:02.292Z,6.80
2022-11-26T23:42:29.061Z,6.80
2022-11-26T23:44:55.793Z,6.80
2022-11-26T23:47:22.545Z,6.80
2022-11-26T23:49:49.416Z,6.80
2022-11-26T23:52:16.268Z,6.80
2022-11-26T23:54:43.370Z,6.80
2022-11-26T23:57:14.983Z,6.80
2022-11-26T23:59:42.264Z,6.80
